createdAt,value
2023-05-06T00:00:13.049Z,97499.09
2023-05-06T00:02:42.125Z,97486.56
2023-05-06T00:05:10.997Z,97483.91
2023-05-06T00:07:39.551Z,97497.31
2023-05-06T00:10:08.381Z,97453.38
2023-05-06T00:12:36.700Z,97481.59
2023-05-06T00:15:07.957Z,97494.72
2023-05-06T00:17:36.458Z,97440.66
2023-05-06T00:20:05.331Z,97501.41
2023-05-06T00:22:33.727Z,97498.56
2023-05-06T00:25:01.994Z,97496.00
2023-05-06T00:27:30.172Z,97499.69
2023-05-06T00:29:58.960Z,97507.59
2023-05-06T00:32:28.628Z,97470.53
2023-05-06T00:34:56.947Z,97405.72
2023-05-06T00:37:25.116Z,97481.50
2023-05-06T00:39:53.378Z,97465.25
2023-05-06T00:42:22.746Z,97500.97
2023-05-06T00:44:51.185Z,97522.66
2023-05-06T00:47:20.079Z,97504.59
2023-05-06T00:49:51.354Z,97503.56
2023-05-06T00:52:21.329Z,97476.47
2023-05-06T00:54:50.120Z,97473.97
2023-05-06T00:57:18.512Z,97507.47
2023-05-06T00:59:46.705Z,97505.53
2023-05-06T01:02:14.954Z,97417.72
2023-05-06T01:04:43.417Z,97506.69
2023-05-06T01:07:23.633Z,97325.09
2023-05-06T01:09:57.285Z,97510.09
2023-05-06T01:12:32.398Z,97486.31
2023-05-06T01:15:08.762Z,97463.88
2023-05-06T01:17:41.327Z,97489.72
2023-05-06T01:20:12.204Z,97505.34
2023-05-06T01:22:42.256Z,97520.63
2023-05-06T01:25:20.650Z,97519.75
2023-05-06T01:27:49.092Z,97532.13
2023-05-06T01:30:19.456Z,97524.28
2023-05-06T01:32:59.781Z,97518.94
2023-05-06T01:35:36.682Z,97503.28
2023-05-06T01:38:15.986Z,97510.66
2023-05-06T01:40:48.696Z,97517.22
2023-05-06T01:43:18.330Z,97521.56
2023-05-06T01:45:53.385Z,97521.22
2023-05-06T01:48:23.762Z,97521.09
2023-05-06T01:50:52.121Z,97469.06
2023-05-06T01:53:20.285Z,97513.00
2023-05-06T01:55:49.984Z,97498.56
2023-05-06T01:58:18.151Z,97420.88
2023-05-06T02:00:46.375Z,97511.59
2023-05-06T02:03:15.031Z,97522.31
2023-05-06T02:05:43.427Z,97531.56
2023-05-06T02:08:11.558Z,97508.03
2023-05-06T02:10:39.731Z,97512.59
2023-05-06T02:13:09.493Z,97517.41
2023-05-06T02:15:37.722Z,97508.38
2023-05-06T02:18:06.068Z,97515.31
2023-05-06T02:20:34.236Z,97500.34
2023-05-06T02:23:02.442Z,97467.84
2023-05-06T02:25:31.480Z,97475.53
2023-05-06T02:27:59.741Z,97501.91
2023-05-06T02:30:31.019Z,97495.63
2023-05-06T02:32:59.406Z,97491.03
2023-05-06T02:35:27.551Z,97497.25
2023-05-06T02:37:55.733Z,97501.19
2023-05-06T02:40:23.985Z,97487.16
2023-05-06T02:42:52.123Z,97490.09
2023-05-06T02:45:20.360Z,97462.63
2023-05-06T02:47:49.962Z,97491.72
2023-05-06T02:50:18.380Z,97432.16
2023-05-06T02:52:46.560Z,97494.78
2023-05-06T02:55:14.753Z,97488.38
2023-05-06T02:57:43.060Z,97497.41
2023-05-06T03:00:12.925Z,97486.53
2023-05-06T03:02:41.131Z,97481.88
2023-05-06T03:05:11.568Z,97476.28
2023-05-06T03:07:40.058Z,97491.66
2023-05-06T03:10:09.100Z,97482.97
2023-05-06T03:12:37.317Z,97487.03
2023-05-06T03:15:06.152Z,97482.31
2023-05-06T03:17:34.385Z,97399.03
2023-05-06T03:20:02.637Z,97488.34
2023-05-06T03:22:32.216Z,97488.78
2023-05-06T03:25:00.363Z,97492.91
2023-05-06T03:27:28.646Z,97492.75
2023-05-06T03:29:56.822Z,97492.84
2023-05-06T03:32:25.052Z,97479.00
2023-05-06T03:34:53.176Z,97477.09
2023-05-06T03:37:21.390Z,97487.28
2023-05-06T03:39:51.220Z,97482.97
2023-05-06T03:42:19.450Z,97489.16
2023-05-06T03:44:47.593Z,97487.41
2023-05-06T03:47:16.083Z,97484.78
2023-05-06T03:49:44.271Z,97441.22
2023-05-06T03:52:13.144Z,97466.03
2023-05-06T03:54:41.306Z,97483.84
2023-05-06T03:57:10.941Z,97480.66
2023-05-06T03:59:39.112Z,97475.75
2023-05-06T04:02:07.514Z,97480.22
2023-05-06T04:04:35.696Z,97483.38
2023-05-06T04:07:03.972Z,97466.91
2023-05-06T04:09:33.165Z,97494.38
2023-05-06T04:12:02.256Z,97480.75
2023-05-06T04:14:31.924Z,97497.66
2023-05-06T04:17:00.186Z,97472.44
2023-05-06T04:19:28.305Z,97474.16
2023-05-06T04:21:56.608Z,97481.91
2023-05-06T04:24:24.856Z,97492.38
2023-05-06T04:26:53.018Z,97485.66
2023-05-06T04:29:21.268Z,97468.25
2023-05-06T04:31:51.668Z,97459.16
2023-05-06T04:34:19.993Z,97446.97
2023-05-06T04:36:49.203Z,97498.66
2023-05-06T04:39:18.269Z,97481.78
2023-05-06T04:41:46.487Z,97509.91
2023-05-06T04:44:14.712Z,97500.50
2023-05-06T04:46:42.932Z,97507.91
2023-05-06T04:49:12.795Z,97516.81
2023-05-06T04:51:40.985Z,97512.31
2023-05-06T04:54:09.157Z,97491.84
2023-05-06T04:56:37.372Z,97501.59
2023-05-06T04:59:05.636Z,97511.25
2023-05-06T05:01:33.917Z,97523.09
2023-05-06T05:04:02.077Z,97444.63
2023-05-06T05:06:32.298Z,97518.91
2023-05-06T05:09:00.646Z,97517.91
2023-05-06T05:11:28.840Z,97533.72
2023-05-06T05:13:58.041Z,97530.59
2023-05-06T05:16:27.320Z,97528.06
2023-05-06T05:18:55.702Z,97528.31
2023-05-06T05:21:24.053Z,97532.13
2023-05-06T05:23:53.716Z,97525.56
2023-05-06T05:26:22.060Z,97536.94
2023-05-06T05:28:50.311Z,97519.69
2023-05-06T05:31:19.702Z,97472.00
2023-05-06T05:33:47.974Z,97511.72
2023-05-06T05:36:17.029Z,97532.81
2023-05-06T05:38:45.529Z,97498.84
2023-05-06T05:41:17.298Z,97523.00
2023-05-06T05:43:45.781Z,97536.66
2023-05-06T05:46:14.327Z,97534.50
2023-05-06T05:48:42.558Z,97535.75
2023-05-06T05:51:11.878Z,97534.44
2023-05-06T05:53:40.372Z,97542.59
2023-05-06T05:56:09.420Z,97543.50
2023-05-06T05:58:39.038Z,97510.75
2023-05-06T06:01:07.174Z,97460.56
2023-05-06T06:03:36.011Z,97568.56
2023-05-06T06:06:04.633Z,97551.59
2023-05-06T06:08:33.298Z,97540.00
2023-05-06T06:11:02.169Z,97542.25
2023-05-06T06:13:30.317Z,97551.91
2023-05-06T06:16:00.933Z,97511.66
2023-05-06T06:18:29.217Z,97540.38
2023-05-06T06:20:57.544Z,97549.41
2023-05-06T06:23:26.271Z,97539.13
2023-05-06T06:25:54.572Z,97557.38
2023-05-06T06:28:23.009Z,97549.16
2023-05-06T06:30:51.317Z,97562.91
2023-05-06T06:33:20.921Z,97533.88
2023-05-06T06:35:49.057Z,97570.59
2023-05-06T06:38:17.233Z,97558.56
2023-05-06T06:40:45.959Z,97559.34
2023-05-06T06:43:14.242Z,97561.88
2023-05-06T06:45:42.875Z,97555.25
2023-05-06T06:48:11.528Z,97544.91
2023-05-06T06:50:41.152Z,97556.66
2023-05-06T06:53:09.373Z,97560.81
2023-05-06T06:55:37.567Z,97559.38
2023-05-06T06:58:05.793Z,97553.25
2023-05-06T07:00:33.998Z,97529.75
2023-05-06T07:03:02.322Z,97555.16
2023-05-06T07:05:30.675Z,97561.19
2023-05-06T07:08:00.200Z,97498.00
2023-05-06T07:10:28.402Z,97557.47
2023-05-06T07:12:56.693Z,97535.19
2023-05-06T07:15:25.252Z,97550.16
2023-05-06T07:17:53.482Z,97553.84
2023-05-06T07:20:21.700Z,97552.91
2023-05-06T07:22:49.977Z,97542.50
2023-05-06T07:25:19.751Z,97560.22
2023-05-06T07:27:48.099Z,97553.63
2023-05-06T07:30:17.217Z,97559.63
2023-05-06T07:32:45.780Z,97484.31
2023-05-06T07:35:14.163Z,97562.75
2023-05-06T07:37:42.553Z,97486.09
2023-05-06T07:40:11.362Z,97556.72
2023-05-06T07:42:42.977Z,97557.16
2023-05-06T07:45:12.588Z,97554.13
2023-05-06T07:47:41.329Z,97493.72
2023-05-06T07:50:10.754Z,97545.06
2023-05-06T07:52:39.232Z,97545.00
2023-05-06T07:55:10.545Z,97527.19
2023-05-06T07:57:40.951Z,97457.75
2023-05-06T08:00:10.956Z,97521.34
2023-05-06T08:02:44.653Z,97524.84
2023-05-06T08:05:13.536Z,97547.66
2023-05-06T08:07:42.628Z,97540.06
2023-05-06T08:10:11.746Z,97519.00
2023-05-06T08:12:41.777Z,97537.50
2023-05-06T08:15:37.066Z,97535.69
2023-05-06T08:18:21.047Z,97548.84
2023-05-06T08:20:51.332Z,97549.38
2023-05-06T08:23:19.579Z,97546.31
2023-05-06T08:25:47.859Z,97522.41
2023-05-06T08:28:17.803Z,97517.44
2023-05-06T08:30:48.560Z,97551.22
2023-05-06T08:33:16.874Z,97534.75
2023-05-06T08:35:45.096Z,97416.03
2023-05-06T08:38:13.269Z,97545.63
2023-05-06T08:40:44.536Z,97547.16
2023-05-06T08:43:20.585Z,97531.91
2023-05-06T08:45:50.634Z,97569.47
2023-05-06T08:48:19.460Z,97541.81
2023-05-06T08:50:50.295Z,97532.75
2023-05-06T08:53:18.521Z,97538.50
2023-05-06T08:55:47.982Z,97538.63
2023-05-06T08:58:18.433Z,97510.69
2023-05-06T09:00:48.640Z,97385.72
2023-05-06T09:03:16.960Z,97536.16
2023-05-06T09:05:45.247Z,97532.28
2023-05-06T09:08:14.822Z,97512.16
2023-05-06T09:10:45.057Z,97529.16
2023-05-06T09:13:14.374Z,97534.41
2023-05-06T09:15:44.985Z,97525.09
2023-05-06T09:18:13.356Z,97435.19
2023-05-06T09:20:43.087Z,97523.34
2023-05-06T09:23:12.752Z,97513.06
2023-05-06T09:25:41.046Z,97507.94
2023-05-06T09:28:11.065Z,97490.22
2023-05-06T09:30:41.747Z,97486.81
2023-05-06T09:33:12.660Z,97505.97
2023-05-06T09:35:42.887Z,97452.91
2023-05-06T09:38:11.408Z,97510.53
2023-05-06T09:40:40.268Z,97517.06
2023-05-06T09:43:09.010Z,97425.44
2023-05-06T09:45:37.740Z,97491.50
2023-05-06T09:48:06.319Z,97400.81
2023-05-06T09:50:37.901Z,97510.06
2023-05-06T09:53:06.951Z,97426.44
2023-05-06T09:55:35.990Z,97487.78
2023-05-06T09:58:04.887Z,97491.19
2023-05-06T10:00:33.414Z,97385.88
2023-05-06T10:03:02.297Z,97495.59
2023-05-06T10:05:31.890Z,97491.34
2023-05-06T10:08:04.451Z,97408.22
2023-05-06T10:10:35.165Z,97488.47
2023-05-06T10:13:04.666Z,97461.34
2023-05-06T10:15:33.903Z,97477.56
2023-05-06T10:18:02.976Z,97476.38
2023-05-06T10:20:32.786Z,97387.13
2023-05-06T10:23:11.088Z,97450.38
2023-05-06T10:25:41.115Z,97457.28
2023-05-06T10:28:16.045Z,97471.13
2023-05-06T10:30:59.492Z,97469.50
2023-05-06T10:33:29.690Z,97421.81
2023-05-06T10:36:09.189Z,97439.75
2023-05-06T10:38:43.058Z,97442.22
2023-05-06T10:41:11.751Z,97455.22
2023-05-06T10:43:42.591Z,97427.53
2023-05-06T10:46:12.688Z,97424.56
2023-05-06T10:49:01.872Z,97448.88
2023-05-06T10:51:30.133Z,97399.16
2023-05-06T10:54:04.776Z,97427.00
2023-05-06T10:56:34.311Z,97416.34
2023-05-06T10:59:09.105Z,97437.38
2023-05-06T11:01:38.669Z,97389.13
2023-05-06T11:04:09.715Z,97416.03
2023-05-06T11:06:41.218Z,97426.97
2023-05-06T11:09:19.113Z,97395.88
2023-05-06T11:12:01.937Z,97425.09
2023-05-06T11:14:31.680Z,97419.06
2023-05-06T11:17:01.732Z,97412.69
2023-05-06T11:19:31.706Z,97422.88
2023-05-06T11:22:01.337Z,97357.16
2023-05-06T11:24:32.669Z,97361.88
2023-05-06T11:27:01.818Z,97409.06
2023-05-06T11:29:30.015Z,97364.09
2023-05-06T11:31:58.632Z,97406.91
2023-05-06T11:34:28.466Z,97387.69
2023-05-06T11:37:00.847Z,97427.94
2023-05-06T11:39:33.333Z,97403.38
2023-05-06T11:42:07.223Z,97386.44
2023-05-06T11:44:37.562Z,97360.44
2023-05-06T11:47:07.699Z,97406.47
2023-05-06T11:49:39.736Z,97353.09
2023-05-06T11:52:09.657Z,97220.72
2023-05-06T11:54:41.222Z,97313.69
2023-05-06T11:57:09.901Z,97302.78
2023-05-06T11:59:39.686Z,97393.34
2023-05-06T12:02:09.147Z,97417.75
2023-05-06T12:04:42.349Z,97428.44
2023-05-06T12:07:12.169Z,97419.91
2023-05-06T12:09:44.810Z,97423.41
2023-05-06T12:12:16.547Z,97423.25
2023-05-06T12:14:46.436Z,97412.09
2023-05-06T12:17:15.628Z,97300.66
2023-05-06T12:19:43.905Z,97419.38
2023-05-06T12:22:22.583Z,97406.75
2023-05-06T12:24:52.196Z,97398.91
2023-05-06T12:27:31.747Z,97374.56
2023-05-06T12:30:00.705Z,97413.59
2023-05-06T12:32:28.944Z,97415.41
2023-05-06T12:34:57.763Z,97407.41
2023-05-06T12:37:27.310Z,97376.06
2023-05-06T12:39:59.242Z,97399.81
2023-05-06T12:42:27.868Z,97415.28
2023-05-06T12:44:56.223Z,97143.03
2023-05-06T12:47:26.270Z,97327.81
2023-05-06T12:49:58.084Z,97404.44
2023-05-06T12:52:28.801Z,97404.19
2023-05-06T12:54:58.929Z,97405.31
2023-05-06T12:57:27.160Z,97373.31
2023-05-06T12:59:56.501Z,97399.13
2023-05-06T13:02:24.964Z,97172.16
2023-05-06T13:04:53.180Z,97373.47
2023-05-06T13:07:22.446Z,97383.72
2023-05-06T13:09:50.785Z,97375.53
2023-05-06T13:12:20.563Z,97372.50
2023-05-06T13:14:48.826Z,97228.03
2023-05-06T13:17:17.083Z,97301.25
2023-05-06T13:19:45.325Z,97376.75
2023-05-06T13:22:13.456Z,97355.94
2023-05-06T13:24:41.666Z,97379.19
2023-05-06T13:27:09.987Z,97363.31
2023-05-06T13:29:39.862Z,97313.44
2023-05-06T13:32:09.213Z,97333.81
2023-05-06T13:34:37.670Z,97358.84
2023-05-06T13:37:06.354Z,97350.66
2023-05-06T13:39:34.842Z,97328.31
2023-05-06T13:42:06.744Z,97345.78
2023-05-06T13:44:36.504Z,97303.72
2023-05-06T13:47:06.445Z,97357.22
2023-05-06T13:49:35.328Z,97347.50
2023-05-06T13:52:04.706Z,97339.44
2023-05-06T13:54:34.528Z,97346.28
2023-05-06T13:57:02.931Z,97350.56
2023-05-06T13:59:31.230Z,97354.06
2023-05-06T14:01:59.912Z,97317.63
2023-05-06T14:04:29.579Z,97340.63
2023-05-06T14:06:57.711Z,97361.03
2023-05-06T14:09:25.943Z,97326.03
2023-05-06T14:11:54.035Z,97323.28
2023-05-06T14:14:22.238Z,97332.34
2023-05-06T14:16:54.645Z,97264.66
2023-05-06T14:19:23.512Z,97324.81
2023-05-06T14:21:53.180Z,97328.41
2023-05-06T14:24:21.261Z,97329.78
2023-05-06T14:26:49.565Z,97327.78
2023-05-06T14:29:17.887Z,97312.50
2023-05-06T14:31:46.492Z,97319.91
2023-05-06T14:34:14.687Z,97323.59
2023-05-06T14:36:43.828Z,97316.13
2023-05-06T14:39:14.240Z,97307.25
2023-05-06T14:41:42.430Z,97292.22
2023-05-06T14:44:10.681Z,97286.94
2023-05-06T14:46:39.259Z,97292.09
2023-05-06T14:49:07.552Z,97302.59
2023-05-06T14:51:35.844Z,97318.72
2023-05-06T14:54:04.323Z,97255.13
2023-05-06T14:56:34.359Z,97326.50
2023-05-06T14:59:04.244Z,97295.00
2023-05-06T15:01:33.859Z,97301.78
2023-05-06T15:04:02.215Z,97328.06
2023-05-06T15:06:30.469Z,97314.94
2023-05-06T15:08:58.658Z,97321.97
2023-05-06T15:11:26.955Z,97335.16
2023-05-06T15:13:56.639Z,97301.44
2023-05-06T15:16:24.972Z,97322.47
2023-05-06T15:18:53.229Z,97311.03
2023-05-06T15:21:21.422Z,97337.22
2023-05-06T15:23:51.048Z,97310.47
2023-05-06T15:26:19.391Z,97338.31
2023-05-06T15:28:47.560Z,97304.25
2023-05-06T15:31:17.367Z,97348.13
2023-05-06T15:33:45.667Z,97354.56
2023-05-06T15:36:13.943Z,97357.50
2023-05-06T15:39:00.416Z,97356.81
2023-05-06T15:41:30.490Z,97318.50
2023-05-06T15:43:59.512Z,97369.94
2023-05-06T15:46:29.624Z,97372.75
2023-05-06T15:49:17.871Z,97369.22
2023-05-06T15:51:46.564Z,97370.84
2023-05-06T15:54:18.407Z,97389.81
2023-05-06T15:56:47.572Z,97375.31
2023-05-06T15:59:16.272Z,97392.09
2023-05-06T16:04:17.548Z,97380.44
2023-05-06T16:06:46.079Z,97384.09
2023-05-06T16:09:14.284Z,97388.97
2023-05-06T16:11:42.555Z,97395.88
2023-05-06T16:14:10.742Z,97388.88
2023-05-06T16:16:39.057Z,97404.22
2023-05-06T16:19:08.759Z,97393.81
2023-05-06T16:21:37.096Z,97409.03
2023-05-06T16:24:05.519Z,97410.53
2023-05-06T16:26:33.885Z,97407.25
2023-05-06T16:29:02.208Z,97406.69
2023-05-06T16:31:30.783Z,97421.97
2023-05-06T16:33:59.318Z,97431.56
2023-05-06T16:36:29.264Z,97445.53
2023-05-06T16:38:57.815Z,97445.53
2023-05-06T16:41:26.195Z,97469.31
2023-05-06T16:43:54.490Z,97467.09
2023-05-06T16:46:24.421Z,97472.09
2023-05-06T16:48:54.016Z,97476.56
2023-05-06T16:51:22.518Z,97391.66
2023-05-06T16:53:52.354Z,97493.88
2023-05-06T16:56:20.973Z,97494.03
2023-05-06T16:58:49.248Z,97497.91
2023-05-06T17:01:17.721Z,97502.41
2023-05-06T17:03:46.214Z,97521.44
2023-05-06T17:06:14.790Z,97508.63
2023-05-06T17:08:43.305Z,97511.44
2023-05-06T17:11:13.452Z,97507.22
2023-05-06T17:13:41.784Z,97494.81
2023-05-06T17:16:10.038Z,97507.25
2023-05-06T17:18:38.217Z,97493.22
2023-05-06T17:21:09.009Z,97500.78
2023-05-06T17:23:37.388Z,97503.00
2023-05-06T17:26:10.053Z,97505.53
2023-05-06T17:28:40.188Z,97496.13
2023-05-06T17:31:08.740Z,97507.91
2023-05-06T17:33:36.940Z,97521.72
2023-05-06T17:36:05.728Z,97523.28
2023-05-06T17:38:34.056Z,97525.56
2023-05-06T17:41:02.261Z,97523.31
2023-05-06T17:43:30.410Z,97527.69
2023-05-06T17:46:00.065Z,97535.66
2023-05-06T17:48:28.337Z,97537.53
2023-05-06T17:51:01.353Z,97538.72
2023-05-06T17:53:29.606Z,97528.22
2023-05-06T17:55:57.876Z,97552.56
2023-05-06T17:58:26.088Z,97553.06
2023-05-06T18:01:14.100Z,97371.63
2023-05-06T18:03:43.958Z,97560.47
2023-05-06T18:06:13.113Z,97517.44
2023-05-06T18:08:41.254Z,97543.22
2023-05-06T18:11:09.449Z,97552.16
2023-05-06T18:13:37.822Z,97529.69
2023-05-06T18:16:06.667Z,97556.72
2023-05-06T18:18:36.261Z,97550.28
2023-05-06T18:21:04.451Z,97548.84
2023-05-06T18:23:33.012Z,97511.47
2023-05-06T18:26:01.235Z,97473.56
2023-05-06T18:28:29.690Z,97541.25
2023-05-06T18:30:57.920Z,97519.50
2023-05-06T18:33:26.119Z,97549.16
2023-05-06T18:35:55.649Z,97567.00
2023-05-06T18:38:25.453Z,97577.88
2023-05-06T18:40:54.080Z,97520.28
2023-05-06T18:43:22.317Z,97512.59
2023-05-06T18:45:50.555Z,97546.53
2023-05-06T18:48:19.372Z,97596.22
2023-05-06T18:50:47.730Z,97594.72
2023-05-06T18:53:17.964Z,97601.88
2023-05-06T18:55:46.156Z,97577.59
2023-05-06T18:58:14.352Z,97574.47
2023-05-06T19:00:42.516Z,97567.84
2023-05-06T19:03:11.237Z,97589.06
2023-05-06T19:05:39.357Z,97573.63
2023-05-06T19:08:09.381Z,97602.34
2023-05-06T19:10:38.973Z,97573.03
2023-05-06T19:13:07.569Z,97606.19
2023-05-06T19:15:35.919Z,97553.13
2023-05-06T19:18:04.210Z,97603.81
2023-05-06T19:20:32.596Z,97607.84
2023-05-06T19:23:01.277Z,97620.53
2023-05-06T19:25:29.442Z,97619.91
2023-05-06T19:27:59.377Z,97619.31
2023-05-06T19:30:29.545Z,97567.41
2023-05-06T19:32:59.446Z,97626.09
2023-05-06T19:35:27.805Z,97630.53
2023-05-06T19:37:56.215Z,97626.56
2023-05-06T19:40:24.440Z,97588.44
2023-05-06T19:42:53.810Z,97620.06
2023-05-06T19:45:23.471Z,97434.94
2023-05-06T19:47:54.357Z,97626.41
2023-05-06T19:50:35.186Z,97644.91
2023-05-06T19:53:05.877Z,97620.47
2023-05-06T19:55:34.027Z,97588.50
2023-05-06T19:58:02.417Z,97637.19
2023-05-06T20:00:31.981Z,97591.94
2023-05-06T20:03:01.288Z,97618.31
2023-05-06T20:05:31.548Z,97605.09
2023-05-06T20:08:22.158Z,97625.03
2023-05-06T20:11:04.022Z,97608.94
2023-05-06T20:13:32.284Z,97630.53
2023-05-06T20:16:02.135Z,97621.50
2023-05-06T20:18:32.022Z,97619.47
2023-05-06T20:21:00.330Z,97629.50
2023-05-06T20:23:28.476Z,97557.94
2023-05-06T20:25:56.729Z,97629.16
2023-05-06T20:28:28.998Z,97614.00
2023-05-06T20:30:59.919Z,97618.41
2023-05-06T20:33:29.693Z,97606.31
2023-05-06T20:35:58.067Z,97601.88
2023-05-06T20:38:27.292Z,97597.09
2023-05-06T20:40:55.703Z,97612.25
2023-05-06T20:43:23.889Z,97617.38
2023-05-06T20:45:52.096Z,97618.81
2023-05-06T20:48:20.239Z,97623.06
2023-05-06T20:50:50.310Z,97592.00
2023-05-06T20:53:18.461Z,97606.34
2023-05-06T20:55:46.655Z,97621.78
2023-05-06T20:58:14.815Z,97569.94
2023-05-06T21:00:43.242Z,97617.88
2023-05-06T21:03:12.115Z,97618.38
2023-05-06T21:05:40.437Z,97602.75
2023-05-06T21:08:10.090Z,97593.00
2023-05-06T21:10:38.293Z,97583.88
2023-05-06T21:13:07.056Z,97546.09
2023-05-06T21:15:35.484Z,97603.19
2023-05-06T21:18:03.811Z,97558.50
2023-05-06T21:20:32.133Z,97608.19
2023-05-06T21:23:00.398Z,97597.28
2023-05-06T21:25:30.263Z,97606.50
2023-05-06T21:28:03.425Z,97555.13
2023-05-06T21:30:31.879Z,97553.84
2023-05-06T21:33:00.346Z,97476.72
2023-05-06T21:35:28.834Z,97560.59
2023-05-06T21:37:57.077Z,97584.19
2023-05-06T21:40:25.538Z,97528.31
2023-05-06T21:42:55.467Z,97561.16
2023-05-06T21:45:23.682Z,97565.78
2023-05-06T21:47:51.972Z,97606.19
2023-05-06T21:50:20.280Z,97582.63
2023-05-06T21:52:48.554Z,97580.91
2023-05-06T21:55:17.141Z,97607.50
2023-05-06T21:57:46.283Z,97583.56
2023-05-06T22:00:19.839Z,97597.28
2023-05-06T22:02:48.134Z,97595.81
2023-05-06T22:05:16.419Z,97601.38
2023-05-06T22:07:44.575Z,97558.94
2023-05-06T22:10:13.649Z,97574.56
2023-05-06T22:12:41.908Z,97280.91
2023-05-06T22:15:11.136Z,97587.00
2023-05-06T22:17:41.031Z,97575.81
2023-05-06T22:20:11.735Z,97568.25
2023-05-06T22:22:40.138Z,97588.56
2023-05-06T22:25:09.338Z,97557.09
2023-05-06T22:27:37.839Z,97566.53
2023-05-06T22:30:08.161Z,97594.03
2023-05-06T22:32:36.351Z,97572.53
2023-05-06T22:35:06.694Z,97555.19
2023-05-06T22:37:34.873Z,97593.72
2023-05-06T22:40:03.378Z,97569.81
2023-05-06T22:42:31.559Z,97595.09
2023-05-06T22:44:59.771Z,97581.56
2023-05-06T22:47:28.045Z,97596.09
2023-05-06T22:49:56.253Z,97606.00
2023-05-06T22:52:25.915Z,97604.63
2023-05-06T22:54:54.201Z,97595.41
2023-05-06T22:57:23.310Z,97618.72
2023-05-06T22:59:51.572Z,97596.50
2023-05-06T23:02:19.810Z,97612.28
2023-05-06T23:04:48.019Z,97599.25
2023-05-06T23:07:16.781Z,97603.81
2023-05-06T23:09:46.343Z,97613.84
2023-05-06T23:12:14.527Z,97605.91
2023-05-06T23:14:42.868Z,97624.53
2023-05-06T23:17:11.068Z,97611.69
2023-05-06T23:19:39.216Z,97613.31
2023-05-06T23:22:07.458Z,97606.59
2023-05-06T23:24:35.704Z,97599.88
2023-05-06T23:27:05.431Z,97596.22
2023-05-06T23:29:33.554Z,97588.16
2023-05-06T23:32:01.759Z,96968.28
2023-05-06T23:34:29.948Z,97586.91
2023-05-06T23:36:58.032Z,97582.84
2023-05-06T23:39:26.221Z,97565.88
2023-05-06T23:41:54.366Z,97543.03
2023-05-06T23:44:24.223Z,97561.38
2023-05-06T23:46:52.586Z,97560.28
2023-05-06T23:49:21.096Z,97558.72
2023-05-06T23:51:49.246Z,97549.53
2023-05-06T23:54:17.444Z,97513.94
2023-05-06T23:56:45.696Z,97502.84
2023-05-06T23:59:13.907Z,97523.38
